createdAt,value
2023-01-31T00:01:33.200Z,97943.13
2023-01-31T00:04:01.966Z,97948.22
2023-01-31T00:06:35.140Z,97938.09
2023-01-31T00:09:03.466Z,97942.88
2023-01-31T00:11:31.172Z,97927.06
2023-01-31T00:13:59.115Z,97925.75
2023-01-31T00:16:26.354Z,97934.09
2023-01-31T00:18:52.773Z,97941.31
2023-01-31T00:21:28.549Z,97932.53
2023-01-31T00:23:56.032Z,97932.53
2023-01-31T00:26:25.232Z,97925.53
2023-01-31T00:28:53.575Z,97940.78
2023-01-31T00:31:21.975Z,97944.47
2023-01-31T00:33:49.749Z,97948.25
2023-01-31T00:36:19.226Z,97961.16
2023-01-31T00:38:54.962Z,97944.34
2023-01-31T00:41:22.917Z,97942.91
2023-01-31T00:43:50.303Z,97945.91
2023-01-31T00:46:17.124Z,97945.91
2023-01-31T00:48:43.563Z,97954.13
2023-01-31T00:51:09.921Z,97934.34
2023-01-31T00:53:36.661Z,97942.81
2023-01-31T00:56:15.645Z,97949.16
2023-01-31T00:58:42.692Z,97946.34
2023-01-31T01:01:16.576Z,97943.78
2023-01-31T01:03:44.616Z,97941.00
2023-01-31T01:06:12.492Z,97960.59
2023-01-31T01:08:40.837Z,97958.84
2023-01-31T01:11:16.586Z,97952.16
2023-01-31T01:13:44.165Z,97963.94
2023-01-31T01:16:17.569Z,97962.38
2023-01-31T01:18:46.397Z,97969.38
2023-01-31T01:21:15.597Z,97973.28
2023-01-31T01:23:42.768Z,97968.94
2023-01-31T01:26:21.491Z,97969.28
2023-01-31T01:28:48.762Z,97974.63
2023-01-31T01:31:16.509Z,97964.50
2023-01-31T01:33:44.531Z,97961.72
2023-01-31T01:36:13.255Z,97973.41
2023-01-31T01:38:41.116Z,97973.06
2023-01-31T01:41:08.573Z,97984.34
2023-01-31T01:43:57.766Z,97987.09
2023-01-31T01:46:31.834Z,97987.34
2023-01-31T01:49:11.706Z,97979.75
2023-01-31T01:51:39.095Z,97974.97
2023-01-31T01:54:12.889Z,97971.63
2023-01-31T01:56:44.349Z,97980.97
2023-01-31T01:59:23.172Z,97978.06
2023-01-31T02:01:50.824Z,97971.31
2023-01-31T02:04:20.763Z,97976.19
2023-01-31T02:06:47.621Z,97962.16
2023-01-31T02:09:22.247Z,97968.72
2023-01-31T02:11:48.653Z,97978.28
2023-01-31T02:14:15.649Z,97969.06
2023-01-31T02:16:42.139Z,97969.41
2023-01-31T02:19:35.406Z,97976.16
2023-01-31T02:22:15.866Z,97979.63
2023-01-31T02:25:00.511Z,97971.63
2023-01-31T02:27:37.428Z,97968.59
2023-01-31T02:30:26.451Z,97965.16
2023-01-31T02:32:55.877Z,97956.13
2023-01-31T02:35:28.241Z,97965.69
2023-01-31T02:38:17.511Z,97970.59
2023-01-31T02:41:15.867Z,97962.31
2023-01-31T02:44:33.639Z,97966.97
2023-01-31T02:47:05.953Z,97958.06
2023-01-31T02:49:48.579Z,97959.06
2023-01-31T02:52:19.082Z,97964.84
2023-01-31T02:55:18.011Z,97968.72
2023-01-31T02:57:45.802Z,97968.34
2023-01-31T03:00:13.512Z,97966.66
2023-01-31T03:02:39.922Z,97950.47
2023-01-31T03:05:06.760Z,97962.75
2023-01-31T03:07:37.910Z,97961.13
2023-01-31T03:10:19.741Z,97963.06
2023-01-31T03:12:48.884Z,97973.06
2023-01-31T03:16:00.904Z,97962.69
2023-01-31T03:18:34.975Z,97975.03
2023-01-31T03:21:12.854Z,97980.94
2023-01-31T03:23:42.523Z,97999.34
2023-01-31T03:26:09.992Z,97999.34
2023-01-31T03:28:42.114Z,97998.00
2023-01-31T03:31:21.302Z,97995.72
2023-01-31T03:34:02.117Z,97999.03
2023-01-31T03:36:46.700Z,98016.88
2023-01-31T03:39:27.028Z,98001.88
2023-01-31T03:41:59.207Z,98007.59
2023-01-31T03:44:36.692Z,98008.72
2023-01-31T03:47:19.085Z,97988.00
2023-01-31T03:49:48.792Z,98011.91
2023-01-31T03:52:23.256Z,98017.59
2023-01-31T03:54:58.365Z,98005.88
2023-01-31T03:57:32.438Z,98005.53
2023-01-31T04:00:00.903Z,98009.84
2023-01-31T04:02:39.525Z,98000.97
2023-01-31T04:05:18.305Z,98015.88
2023-01-31T04:07:45.132Z,98000.97
2023-01-31T04:10:19.645Z,98001.75
2023-01-31T04:12:46.896Z,98004.53
2023-01-31T04:15:14.512Z,98011.00
2023-01-31T04:17:40.914Z,97989.50
2023-01-31T04:20:08.129Z,97996.94
2023-01-31T04:22:34.526Z,97997.03
2023-01-31T04:25:01.285Z,97988.44
2023-01-31T04:27:27.887Z,97991.13
2023-01-31T04:29:54.316Z,97981.19
2023-01-31T04:32:20.728Z,97995.94
2023-01-31T04:34:47.070Z,97975.50
2023-01-31T04:37:13.432Z,97990.06
2023-01-31T04:39:39.790Z,97988.34
2023-01-31T04:42:06.130Z,97978.78
2023-01-31T04:44:32.968Z,97965.72
2023-01-31T04:47:00.044Z,97966.50
2023-01-31T04:49:27.031Z,97979.97
2023-01-31T04:51:53.390Z,97962.00
2023-01-31T04:54:19.757Z,97957.13
2023-01-31T04:56:46.235Z,97960.38
2023-01-31T04:59:12.603Z,97967.13
2023-01-31T05:01:38.975Z,97976.91
2023-01-31T05:04:05.866Z,97962.44
2023-01-31T05:06:32.779Z,97971.03
2023-01-31T05:09:01.419Z,97955.41
2023-01-31T05:11:29.247Z,97960.66
2023-01-31T05:13:55.610Z,97966.03
2023-01-31T05:16:22.030Z,97965.63
2023-01-31T05:18:50.791Z,97961.59
2023-01-31T05:21:17.224Z,97954.44
2023-01-31T05:23:43.629Z,97966.97
2023-01-31T05:26:10.301Z,97968.75
2023-01-31T05:28:36.686Z,97968.31
2023-01-31T05:31:07.836Z,97977.47
2023-01-31T05:33:35.169Z,97966.31
2023-01-31T05:36:02.404Z,97948.69
2023-01-31T05:38:28.830Z,97951.56
2023-01-31T05:40:55.196Z,97950.06
2023-01-31T05:43:21.592Z,97963.34
2023-01-31T05:45:49.515Z,97973.38
2023-01-31T05:48:15.920Z,97959.22
2023-01-31T05:50:42.314Z,97961.72
2023-01-31T05:53:09.252Z,97970.06
2023-01-31T05:55:35.682Z,97956.97
2023-01-31T05:58:02.419Z,97960.88
2023-01-31T06:00:28.965Z,97948.88
2023-01-31T06:02:59.724Z,97953.69
2023-01-31T06:05:27.036Z,97960.78
2023-01-31T06:07:53.453Z,97958.66
2023-01-31T06:10:21.121Z,97953.13
2023-01-31T06:12:47.904Z,97962.63
2023-01-31T06:15:14.346Z,97952.06
2023-01-31T06:17:40.693Z,97946.81
2023-01-31T06:20:07.413Z,97950.56
2023-01-31T06:22:34.229Z,97941.59
2023-01-31T06:25:00.704Z,97945.47
2023-01-31T06:27:27.095Z,97952.56
2023-01-31T06:29:53.463Z,97944.41
2023-01-31T06:32:19.936Z,97962.16
2023-01-31T06:34:46.353Z,97947.31
2023-01-31T06:37:12.710Z,97943.53
2023-01-31T06:39:39.071Z,97962.34
2023-01-31T06:42:05.665Z,97969.75
2023-01-31T06:44:33.407Z,97977.44
2023-01-31T06:47:01.539Z,97958.00
2023-01-31T06:49:27.989Z,97976.38
2023-01-31T06:51:54.430Z,97967.44
2023-01-31T06:54:20.893Z,97965.66
2023-01-31T06:56:47.413Z,97952.41
2023-01-31T06:59:13.812Z,97972.34
2023-01-31T07:01:41.249Z,97954.31
2023-01-31T07:04:07.665Z,97971.34
2023-01-31T07:06:34.039Z,97976.28
2023-01-31T07:09:00.414Z,97981.44
2023-01-31T07:11:26.871Z,97967.88
2023-01-31T07:13:53.292Z,97970.56
2023-01-31T07:16:19.835Z,97972.22
2023-01-31T07:18:46.286Z,97968.13
2023-01-31T07:21:12.678Z,97974.75
2023-01-31T07:23:39.479Z,97979.84
2023-01-31T07:26:06.239Z,97974.75
2023-01-31T07:28:32.646Z,97971.16
2023-01-31T07:31:11.592Z,97980.34
2023-01-31T07:33:38.750Z,97983.91
2023-01-31T07:36:07.553Z,98000.41
2023-01-31T07:38:35.198Z,97990.31
2023-01-31T07:41:03.342Z,97978.13
2023-01-31T07:43:31.183Z,97994.94
2023-01-31T07:45:58.032Z,97985.56
2023-01-31T07:48:24.536Z,97964.06
2023-01-31T07:50:59.481Z,97974.59
2023-01-31T07:53:28.094Z,97972.38
2023-01-31T07:55:54.552Z,97961.25
2023-01-31T07:58:20.928Z,97968.84
2023-01-31T08:01:06.161Z,97965.06
2023-01-31T08:03:33.427Z,97958.13
2023-01-31T08:06:08.376Z,97964.13
2023-01-31T08:08:35.821Z,97961.50
2023-01-31T08:11:02.440Z,97960.84
2023-01-31T08:13:29.300Z,97944.59
2023-01-31T08:15:55.813Z,97967.94
2023-01-31T08:18:22.221Z,97964.41
2023-01-31T08:20:49.628Z,97968.38
2023-01-31T08:23:16.060Z,97985.97
2023-01-31T08:25:42.552Z,97979.06
2023-01-31T08:28:09.118Z,97975.44
2023-01-31T08:30:39.741Z,97973.91
2023-01-31T08:33:06.107Z,97974.41
2023-01-31T08:35:32.629Z,97987.66
2023-01-31T08:38:15.381Z,97968.63
2023-01-31T08:40:43.353Z,97979.75
2023-01-31T08:43:09.699Z,97969.91
2023-01-31T08:45:37.007Z,97979.91
2023-01-31T08:48:03.942Z,97966.34
2023-01-31T08:50:32.813Z,97959.91
2023-01-31T08:53:04.306Z,97939.78
2023-01-31T08:55:31.825Z,97926.66
2023-01-31T08:58:00.284Z,97946.38
2023-01-31T09:00:27.553Z,97917.75
2023-01-31T09:02:56.146Z,97939.03
2023-01-31T09:05:23.942Z,97931.22
2023-01-31T09:07:50.338Z,97951.59
2023-01-31T09:10:18.228Z,97960.38
2023-01-31T09:12:44.681Z,97959.50
2023-01-31T09:15:11.446Z,97962.38
2023-01-31T09:17:39.227Z,97974.19
2023-01-31T09:20:07.988Z,97969.06
2023-01-31T09:22:34.865Z,97972.72
2023-01-31T09:25:01.928Z,97974.63
2023-01-31T09:27:28.720Z,97986.84
2023-01-31T09:29:55.773Z,97977.19
2023-01-31T09:32:22.168Z,97976.84
2023-01-31T09:34:49.179Z,97974.72
2023-01-31T09:37:16.345Z,97974.94
2023-01-31T09:39:42.976Z,97970.25
2023-01-31T09:42:43.562Z,97954.88
2023-01-31T09:45:18.409Z,97946.19
2023-01-31T09:47:52.004Z,97950.00
2023-01-31T09:50:41.509Z,97945.06
2023-01-31T09:53:15.292Z,97956.72
2023-01-31T09:55:56.742Z,97944.16
2023-01-31T09:58:32.137Z,97963.16
2023-01-31T10:01:15.073Z,97960.56
2023-01-31T10:03:56.676Z,97966.16
2023-01-31T10:06:28.671Z,97937.59
2023-01-31T10:09:10.665Z,97932.63
2023-01-31T10:11:43.261Z,97936.06
2023-01-31T10:14:40.808Z,97912.34
2023-01-31T10:17:18.345Z,97931.44
2023-01-31T10:20:03.317Z,97937.34
2023-01-31T10:22:56.180Z,97947.91
2023-01-31T10:25:34.171Z,97945.75
2023-01-31T10:28:05.942Z,97934.94
2023-01-31T10:30:44.494Z,97944.09
2023-01-31T10:33:38.109Z,97953.06
2023-01-31T10:36:13.573Z,97940.00
2023-01-31T10:38:54.701Z,97922.88
2023-01-31T10:41:41.035Z,97912.06
2023-01-31T10:44:17.987Z,97901.91
2023-01-31T10:46:44.344Z,97899.25
2023-01-31T10:49:11.091Z,97892.72
2023-01-31T10:52:08.653Z,97903.38
2023-01-31T10:54:49.805Z,97905.00
2023-01-31T10:57:18.008Z,97904.44
2023-01-31T10:59:47.753Z,97888.25
2023-01-31T11:02:22.299Z,97887.25
2023-01-31T11:04:51.915Z,97866.56
2023-01-31T11:07:19.786Z,97875.81
2023-01-31T11:09:54.110Z,97871.38
2023-01-31T11:12:22.122Z,97854.19
2023-01-31T11:15:15.222Z,97847.03
2023-01-31T11:17:43.098Z,97847.81
2023-01-31T11:20:24.206Z,97845.41
2023-01-31T11:22:52.062Z,97828.00
2023-01-31T11:25:22.075Z,97823.25
2023-01-31T11:27:49.750Z,97830.25
2023-01-31T11:30:22.223Z,97833.88
2023-01-31T11:32:49.564Z,97824.31
2023-01-31T11:35:15.947Z,97819.66
2023-01-31T11:37:53.769Z,97808.84
2023-01-31T11:40:22.857Z,97791.34
2023-01-31T11:43:04.152Z,97798.78
2023-01-31T11:45:33.077Z,97798.31
2023-01-31T11:48:25.779Z,97789.41
2023-01-31T11:50:58.285Z,97789.72
2023-01-31T11:53:48.090Z,97785.53
2023-01-31T11:56:21.080Z,97773.13
2023-01-31T11:58:52.304Z,97765.53
2023-01-31T12:01:22.625Z,97766.63
2023-01-31T12:04:01.772Z,97761.78
2023-01-31T12:06:37.295Z,97776.09
2023-01-31T12:09:20.438Z,97792.19
2023-01-31T12:12:02.700Z,97790.88
2023-01-31T12:14:47.436Z,97758.38
2023-01-31T12:17:16.922Z,97746.25
2023-01-31T12:19:52.042Z,97754.19
2023-01-31T12:22:24.453Z,97737.94
2023-01-31T12:25:39.599Z,97735.22
2023-01-31T12:28:33.093Z,97738.25
2023-01-31T12:31:22.494Z,97736.22
2023-01-31T12:34:26.016Z,97723.13
2023-01-31T12:37:06.991Z,97731.34
2023-01-31T12:40:24.303Z,97740.63
2023-01-31T12:43:01.251Z,97725.53
2023-01-31T12:46:07.153Z,97719.91
2023-01-31T12:48:45.719Z,97719.28
2023-01-31T12:51:22.205Z,97719.56
2023-01-31T12:54:04.698Z,97690.25
2023-01-31T12:56:49.261Z,97703.72
2023-01-31T12:59:27.879Z,97710.88
2023-01-31T13:02:14.476Z,97718.03
2023-01-31T13:04:59.074Z,97712.19
2023-01-31T13:07:34.202Z,97709.59
2023-01-31T13:10:05.587Z,97706.44
2023-01-31T13:12:35.625Z,97691.19
2023-01-31T13:15:31.557Z,97699.22
2023-01-31T13:18:03.581Z,97669.56
2023-01-31T13:20:44.267Z,97674.81
2023-01-31T13:23:16.952Z,97674.66
2023-01-31T13:26:07.595Z,97675.44
2023-01-31T13:28:46.505Z,97671.03
2023-01-31T13:31:24.537Z,97656.38
2023-01-31T13:34:12.525Z,97665.75
2023-01-31T13:36:45.184Z,97662.16
2023-01-31T13:39:37.879Z,97677.59
2023-01-31T13:42:04.695Z,97652.13
2023-01-31T13:44:31.200Z,97659.78
2023-01-31T13:47:12.468Z,97660.59
2023-01-31T13:49:47.531Z,97667.31
2023-01-31T13:52:13.864Z,97659.94
2023-01-31T13:54:48.927Z,97663.47
2023-01-31T13:57:29.446Z,97649.09
2023-01-31T14:00:06.697Z,97640.09
2023-01-31T14:02:33.399Z,97656.59
2023-01-31T14:05:27.601Z,97653.97
2023-01-31T14:08:32.439Z,97664.34
2023-01-31T14:11:19.124Z,97667.44
2023-01-31T14:13:48.059Z,97663.19
2023-01-31T14:16:38.831Z,97663.66
2023-01-31T14:19:34.814Z,97658.78
2023-01-31T14:22:41.394Z,97659.59
2023-01-31T14:25:10.843Z,97660.09
2023-01-31T14:27:46.698Z,97665.47
2023-01-31T14:30:27.511Z,97674.50
2023-01-31T14:33:19.606Z,97670.94
2023-01-31T14:36:11.224Z,97660.09
2023-01-31T14:38:50.068Z,97661.09
2023-01-31T14:42:02.917Z,97672.34
2023-01-31T14:44:50.848Z,97662.25
2023-01-31T14:47:37.587Z,97671.75
2023-01-31T14:50:24.008Z,97658.19
2023-01-31T14:53:04.458Z,97669.03
2023-01-31T14:55:39.925Z,97659.72
2023-01-31T14:58:15.045Z,97649.88
2023-01-31T15:00:50.511Z,97643.16
2023-01-31T15:03:34.535Z,97665.34
2023-01-31T15:06:21.709Z,97666.16
2023-01-31T15:08:50.203Z,97656.41
2023-01-31T15:11:41.097Z,97666.25
2023-01-31T15:14:41.003Z,97669.06
2023-01-31T15:17:37.758Z,97660.13
2023-01-31T15:20:18.463Z,97670.38
2023-01-31T15:22:46.739Z,97654.88
2023-01-31T15:25:33.625Z,97667.31
2023-01-31T15:28:01.459Z,97663.16
2023-01-31T15:30:33.040Z,97655.31
2023-01-31T15:33:12.950Z,97670.69
2023-01-31T15:35:54.055Z,97671.53
2023-01-31T15:38:53.660Z,97663.03
2023-01-31T15:41:44.230Z,97668.47
2023-01-31T15:44:24.952Z,97658.63
2023-01-31T15:46:54.141Z,97660.38
2023-01-31T15:49:37.954Z,97674.50
2023-01-31T15:52:11.731Z,97668.31
2023-01-31T15:54:38.684Z,97672.19
2023-01-31T15:57:09.425Z,97679.47
2023-01-31T15:59:35.910Z,97666.47
2023-01-31T16:02:04.830Z,97658.47
2023-01-31T16:04:31.279Z,97681.97
2023-01-31T16:06:58.894Z,97668.84
2023-01-31T16:09:34.386Z,97690.91
2023-01-31T16:12:02.267Z,97671.38
2023-01-31T16:14:29.959Z,97669.88
2023-01-31T16:16:58.258Z,97674.19
2023-01-31T16:19:30.464Z,97673.09
2023-01-31T16:21:58.420Z,97673.09
2023-01-31T16:24:25.673Z,97678.97
2023-01-31T16:26:59.151Z,97684.22
2023-01-31T16:29:39.369Z,97673.41
2023-01-31T16:32:16.938Z,97683.38
2023-01-31T16:34:43.574Z,97667.88
2023-01-31T16:37:12.496Z,97659.69
2023-01-31T16:39:41.009Z,97673.41
2023-01-31T16:42:31.042Z,97674.50
2023-01-31T16:44:57.981Z,97681.97
2023-01-31T16:47:39.596Z,97681.94
2023-01-31T16:50:22.609Z,97680.06
2023-01-31T16:53:06.223Z,97677.75
2023-01-31T16:55:32.589Z,97672.72
2023-01-31T16:57:58.930Z,97664.13
2023-01-31T17:00:25.308Z,97672.59
2023-01-31T17:02:53.957Z,97673.41
2023-01-31T17:05:27.816Z,97679.84
2023-01-31T17:07:54.981Z,97680.06
2023-01-31T17:10:34.789Z,97672.84
2023-01-31T17:13:26.205Z,97678.03
2023-01-31T17:15:52.710Z,97667.09
2023-01-31T17:18:19.207Z,97669.50
2023-01-31T17:20:48.717Z,97678.88
2023-01-31T17:23:15.147Z,97653.81
2023-01-31T17:25:42.827Z,97651.28
2023-01-31T17:28:09.998Z,97683.72
2023-01-31T17:30:42.811Z,97672.44
2023-01-31T17:33:13.352Z,97669.66
2023-01-31T17:35:42.355Z,97663.03
2023-01-31T17:38:08.733Z,97680.06
2023-01-31T17:40:35.429Z,97663.63
2023-01-31T17:43:03.948Z,97663.38
2023-01-31T17:45:30.765Z,97680.16
2023-01-31T17:47:57.092Z,97680.88
2023-01-31T17:50:28.226Z,97694.31
2023-01-31T17:52:55.964Z,97694.31
2023-01-31T17:55:24.385Z,97685.28
2023-01-31T17:57:51.627Z,97690.91
2023-01-31T18:00:20.127Z,97693.56
2023-01-31T18:02:46.939Z,97680.81
2023-01-31T18:05:18.635Z,97671.81
2023-01-31T18:07:48.998Z,97682.91
2023-01-31T18:10:15.852Z,97695.03
2023-01-31T18:12:42.295Z,97689.41
2023-01-31T18:15:09.698Z,97691.53
2023-01-31T18:17:36.447Z,97691.00
2023-01-31T18:20:03.192Z,97688.97
2023-01-31T18:22:29.606Z,97689.22
2023-01-31T18:24:55.976Z,97688.53
2023-01-31T18:27:22.389Z,97691.53
2023-01-31T18:29:48.857Z,97687.69
2023-01-31T18:32:15.242Z,97693.03
2023-01-31T18:34:41.621Z,97686.34
2023-01-31T18:37:15.205Z,97683.25
2023-01-31T18:39:41.575Z,97682.75
2023-01-31T18:42:08.001Z,97668.94
2023-01-31T18:44:34.362Z,97673.28
2023-01-31T18:47:00.797Z,97696.41
2023-01-31T18:49:27.169Z,97692.84
2023-01-31T18:51:53.531Z,97699.78
2023-01-31T18:54:20.003Z,97684.06
2023-01-31T18:56:46.376Z,97701.81
2023-01-31T18:59:12.852Z,97703.50
2023-01-31T19:01:42.857Z,97702.00
2023-01-31T19:04:09.599Z,97700.03
2023-01-31T19:06:38.249Z,97687.50
2023-01-31T19:09:06.524Z,97695.56
2023-01-31T19:11:33.263Z,97682.84
2023-01-31T19:14:04.531Z,97684.94
2023-01-31T19:16:30.924Z,97693.34
2023-01-31T19:18:57.771Z,97686.06
2023-01-31T19:21:30.036Z,97696.41
2023-01-31T19:24:01.780Z,97695.13
2023-01-31T19:26:29.598Z,97686.06
2023-01-31T19:28:58.500Z,97690.19
2023-01-31T19:31:26.624Z,97689.50
2023-01-31T19:33:55.922Z,97691.75
2023-01-31T19:36:24.976Z,97696.66
2023-01-31T19:38:51.690Z,97692.53
2023-01-31T19:41:23.174Z,97696.06
2023-01-31T19:43:57.272Z,97695.34
2023-01-31T19:46:29.943Z,97675.78
2023-01-31T19:48:57.560Z,97672.22
2023-01-31T19:51:25.266Z,97682.47
2023-01-31T19:53:55.125Z,97675.28
2023-01-31T19:56:21.704Z,97664.22
2023-01-31T19:58:48.095Z,97667.56
2023-01-31T20:01:16.494Z,97659.59
2023-01-31T20:03:44.060Z,97674.75
2023-01-31T20:06:30.294Z,97670.34
2023-01-31T20:08:59.147Z,97689.41
2023-01-31T20:11:27.417Z,97673.44
2023-01-31T20:13:57.242Z,97672.50
2023-01-31T20:16:24.523Z,97658.00
2023-01-31T20:18:55.457Z,97673.31
2023-01-31T20:21:22.335Z,97673.75
2023-01-31T20:23:49.556Z,97669.44
2023-01-31T20:26:17.506Z,97681.38
2023-01-31T20:28:44.532Z,97668.13
2023-01-31T20:31:12.835Z,97679.41
2023-01-31T20:33:39.310Z,97681.53
2023-01-31T20:36:06.372Z,97683.59
2023-01-31T20:38:32.827Z,97689.78
2023-01-31T20:40:59.237Z,97677.31
2023-01-31T20:43:27.141Z,97682.03
2023-01-31T20:46:00.855Z,97694.97
2023-01-31T20:48:27.286Z,97675.34
2023-01-31T20:50:55.470Z,97665.00
2023-01-31T20:53:22.448Z,97683.63
2023-01-31T20:56:00.856Z,97672.22
2023-01-31T20:58:29.322Z,97690.03
2023-01-31T21:00:56.753Z,97689.50
2023-01-31T21:03:24.170Z,97680.94
2023-01-31T21:05:51.052Z,97702.00
2023-01-31T21:08:18.563Z,97683.78
2023-01-31T21:10:49.853Z,97713.16
2023-01-31T21:13:16.706Z,97703.81
2023-01-31T21:15:54.311Z,97700.81
2023-01-31T21:18:24.513Z,97704.59
2023-01-31T21:20:50.994Z,97709.41
2023-01-31T21:23:17.400Z,97725.66
2023-01-31T21:25:44.205Z,97721.84
2023-01-31T21:28:10.625Z,97707.47
2023-01-31T21:30:37.108Z,97691.47
2023-01-31T21:33:04.032Z,97692.56
2023-01-31T21:35:30.885Z,97697.31
2023-01-31T21:37:57.421Z,97701.81
2023-01-31T21:40:24.074Z,97706.69
2023-01-31T21:42:54.248Z,97690.22
2023-01-31T21:45:39.540Z,97706.47
2023-01-31T21:48:26.946Z,97705.97
2023-01-31T21:50:53.768Z,97705.41
2023-01-31T21:53:20.214Z,97710.97
2023-01-31T21:55:46.733Z,97717.34
2023-01-31T21:58:13.215Z,97708.75
2023-01-31T22:00:39.614Z,97708.25
2023-01-31T22:03:05.949Z,97701.59
2023-01-31T22:05:32.382Z,97691.38
2023-01-31T22:07:58.764Z,97688.34
2023-01-31T22:10:25.139Z,97673.63
2023-01-31T22:12:51.492Z,97667.69
2023-01-31T22:15:17.983Z,97664.56
2023-01-31T22:17:44.587Z,97671.84
2023-01-31T22:20:12.046Z,97659.78
2023-01-31T22:22:38.438Z,97649.94
2023-01-31T22:25:05.249Z,97662.56
2023-01-31T22:27:31.604Z,97649.63
2023-01-31T22:30:06.614Z,97652.94
2023-01-31T22:32:40.491Z,97659.13
2023-01-31T22:35:07.109Z,97656.25
2023-01-31T22:37:33.504Z,97658.50
2023-01-31T22:39:59.907Z,97658.63
2023-01-31T22:42:26.263Z,97649.63
2023-01-31T22:44:52.615Z,97644.97
2023-01-31T22:47:19.036Z,97643.41
2023-01-31T22:49:45.472Z,97656.34
2023-01-31T22:52:11.810Z,97651.50
2023-01-31T22:54:38.211Z,97639.09
2023-01-31T22:57:04.568Z,97646.53
2023-01-31T22:59:30.935Z,97641.13
2023-01-31T23:01:57.293Z,97648.09
2023-01-31T23:04:23.684Z,97647.28
2023-01-31T23:06:50.140Z,97645.84
2023-01-31T23:09:16.736Z,97654.31
2023-01-31T23:11:43.114Z,97643.53
2023-01-31T23:14:09.500Z,97646.41
2023-01-31T23:16:54.703Z,97631.19
2023-01-31T23:19:21.099Z,97618.59
2023-01-31T23:21:48.886Z,97640.53
2023-01-31T23:24:15.670Z,97620.72
2023-01-31T23:26:43.008Z,97625.16
2023-01-31T23:29:09.480Z,97609.19
2023-01-31T23:31:36.537Z,97612.00
2023-01-31T23:34:05.894Z,97608.69
2023-01-31T23:36:32.269Z,97611.81
2023-01-31T23:38:58.622Z,97619.78
2023-01-31T23:41:24.985Z,97600.50
2023-01-31T23:43:51.336Z,97603.44
2023-01-31T23:46:17.723Z,97594.44
2023-01-31T23:48:44.077Z,97573.78
2023-01-31T23:51:10.498Z,97582.09
2023-01-31T23:53:36.862Z,97596.03
2023-01-31T23:56:03.340Z,97584.16
2023-01-31T23:58:29.692Z,97608.44
